Time;durP1;ratioP1;P1;durP2;ratioP2;P2;SDS_P1;SDS_P2;PMS_P1;PMS_P2;Temp;Humidity;BMP_temperature;BMP_pressure;BME280_temperature;BME280_humidity;BME280_pressure;Samples;Min_cycle;Max_cycle;Signal;HPM_P1;HPM_P2
2022/07/29 00:01:24;;;;;;;2.35;1.88;;;14.20;34.90;;;;;;5050864;28;20577;-62
2022/07/29 00:03:51;;;;;;;4.53;1.88;;;14.00;99.90;;;;;;5069232;28;20319;-62
2022/07/29 00:06:17;;;;;;;2.47;2.00;;;14.20;99.90;;;;;;5070245;28;20226;-62
2022/07/29 00:08:44;;;;;;;1.80;1.55;;;14.10;99.90;;;;;;5073339;28;20204;-62
2022/07/29 00:11:11;;;;;;;4.15;1.70;;;14.20;99.90;;;;;;5070483;28;20196;-62
2022/07/29 00:13:38;;;;;;;3.28;1.60;;;14.10;99.90;;;;;;5069263;28;20677;-63
2022/07/29 00:16:05;;;;;;;2.85;1.83;;;14.10;1.00;;;;;;5070712;28;20193;-62
2022/07/29 00:18:33;;;;;;;3.20;1.55;;;13.80;1.00;;;;;;5050863;28;20208;-62
2022/07/29 00:21:00;;;;;;;4.72;2.08;;;14.10;1.00;;;;;;5069134;28;20576;-62
2022/07/29 00:23:27;;;;;;;2.20;1.80;;;14.00;1.00;;;;;;5068945;28;20243;-62
2022/07/29 00:25:53;;;;;;;2.17;1.58;;;14.10;1.00;;;;;;5069084;28;20200;-62
2022/07/29 00:28:20;;;;;;;2.72;1.85;;;14.10;1.00;;;;;;5063513;28;20224;-62
2022/07/29 00:30:47;;;;;;;4.35;1.88;;;14.10;1.00;;;;;;5068248;28;20216;-62
2022/07/29 00:33:14;;;;;;;3.70;1.95;;;14.10;1.00;;;;;;5050332;28;20364;-63
2022/07/29 00:35:44;;;;;;;1.95;1.65;;;14.20;1.00;;;;;;5068843;28;20844;-62
2022/07/29 00:38:11;;;;;;;3.28;1.90;;;14.20;1.00;;;;;;5075585;28;20208;-62
2022/07/29 00:40:38;;;;;;;2.15;1.80;;;13.20;1.00;;;;;;5072384;28;20223;-62
2022/07/29 00:43:05;;;;;;;1.60;1.50;;;14.10;1.00;;;;;;5066827;28;20234;-62
2022/07/29 00:45:32;;;;;;;3.50;1.60;;;13.70;1.00;;;;;;5073458;28;20207;-62
2022/07/29 00:47:59;;;;;;;2.95;1.80;;;13.90;26.70;;;;;;5048621;28;20381;-62
2022/07/29 00:50:27;;;;;;;5.85;1.70;;;14.00;24.50;;;;;;5072633;28;20665;-62
2022/07/29 00:52:55;;;;;;;1.90;1.70;;;14.00;99.90;;;;;;5070934;28;20228;-62
2022/07/29 00:55:22;;;;;;;3.78;1.95;;;14.00;99.90;;;;;;5070746;28;21355;-62
2022/07/29 00:57:49;;;;;;;2.30;1.40;;;14.10;99.90;;;;;;5067790;28;20220;-62
2022/07/29 01:00:19;;;;;;;3.13;1.80;;;14.00;99.90;;;;;;5068629;28;20192;-62
2022/07/29 01:02:48;;;;;;;1.67;1.58;;;13.90;99.90;;;;;;5070088;28;20220;-62
2022/07/29 01:05:17;;;;;;;2.75;2.00;;;13.60;99.90;;;;;;5048269;28;20211;-62
2022/07/29 01:07:44;;;;;;;2.85;1.73;;;13.80;99.90;;;;;;5067455;28;20681;-62
2022/07/29 01:10:14;;;;;;;3.45;1.70;;;13.50;99.90;;;;;;5069029;28;21069;-62
2022/07/29 01:12:42;;;;;;;2.40;1.75;;;13.70;99.90;;;;;;5070664;28;20209;-62
2022/07/29 01:15:09;;;;;;;1.63;1.52;;;13.80;99.90;;;;;;5065208;28;20201;-62
2022/07/29 01:17:43;;;;;;;4.60;1.98;;;13.80;99.90;;;;;;5072858;28;20207;-62
2022/07/29 01:20:15;;;;;;;4.70;2.17;;;13.70;99.90;;;;;;5044428;28;20208;-62
2022/07/29 01:23:09;;;;;;;5.70;2.28;;;13.80;99.90;;;;;;5069507;28;20575;-61
2022/07/29 01:25:55;;;;;;;2.22;1.70;;;13.50;99.90;;;;;;5074523;28;20209;-62
2022/07/29 01:28:50;;;;;;;2.45;1.75;;;13.80;99.90;;;;;;5072063;28;20206;-62
2022/07/29 01:31:21;;;;;;;3.55;1.85;;;13.60;99.90;;;;;;5073895;28;20223;-62
2022/07/29 01:33:55;;;;;;;2.17;1.85;;;13.70;99.90;;;;;;5071677;28;20207;-62
2022/07/29 01:36:28;;;;;;;4.03;1.95;;;13.70;99.90;;;;;;5050561;28;20223;-62
2022/07/29 01:39:01;;;;;;;1.92;1.73;;;13.70;99.90;;;;;;5070427;28;20196;-62
2022/07/29 01:41:32;;;;;;;3.05;2.00;;;13.70;1.00;;;;;;5068683;28;20199;-62
2022/07/29 01:44:06;;;;;;;2.15;1.90;;;13.90;1.00;;;;;;5072199;28;20232;-62
2022/07/29 01:46:36;;;;;;;2.60;1.55;;;13.70;1.00;;;;;;5074181;28;20246;-62
2022/07/29 01:49:12;;;;;;;2.28;1.65;;;13.70;1.00;;;;;;5071147;28;20193;-62
2022/07/29 01:51:46;;;;;;;3.03;2.00;;;13.60;1.00;;;;;;5045776;28;20728;-61
2022/07/29 01:54:19;;;;;;;2.35;2.15;;;13.50;1.00;;;;;;5069093;28;20211;-62
2022/07/29 01:56:48;;;;;;;2.17;1.80;;;13.50;1.00;;;;;;5067772;28;20220;-62
2022/07/29 01:59:18;;;;;;;2.97;1.92;;;14.50;1.00;;;;;;5069886;28;20204;-62
2022/07/29 02:01:47;;;;;;;5.28;1.90;;;13.60;1.00;;;;;;5070196;28;20193;-62
2022/07/29 02:04:17;;;;;;;2.42;1.98;;;13.50;1.00;;;;;;5072569;28;20231;-62
2022/07/29 02:06:45;;;;;;;2.45;1.77;;;13.50;1.00;;;;;;5046076;28;20200;-62
2022/07/29 02:09:14;;;;;;;2.85;1.63;;;13.70;1.00;;;;;;5068261;28;20230;-62
2022/07/29 02:11:45;;;;;;;2.47;1.73;;;13.50;1.00;;;;;;5070745;28;20201;-61
2022/07/29 02:14:15;;;;;;;2.13;1.73;;;13.50;1.00;;;;;;5067309;28;20196;-62
2022/07/29 02:16:45;;;;;;;2.15;1.80;;;13.60;1.00;;;;;;5071433;28;20205;-62
2022/07/29 02:19:13;;;;;;;2.50;1.60;;;13.50;1.00;;;;;;5070884;28;20200;-62
2022/07/29 02:21:42;;;;;;;4.80;1.77;;;13.60;1.00;;;;;;5067895;28;20208;-62
2022/07/29 02:24:12;;;;;;;3.25;1.80;;;13.60;1.00;;;;;;5057272;28;21063;-62
2022/07/29 02:26:40;;;;;;;4.05;2.10;;;13.70;1.00;;;;;;5066537;28;20283;-62
2022/07/29 02:29:08;;;;;;;3.35;1.60;;;13.60;1.00;;;;;;5064573;28;20799;-62
2022/07/29 02:31:37;;;;;;;4.75;1.95;;;13.70;1.00;;;;;;5071697;28;20223;-62
2022/07/29 02:34:09;;;;;;;5.40;1.95;;;13.50;1.00;;;;;;5069090;28;20192;-62
2022/07/29 02:36:35;;;;;;;3.20;1.73;;;13.40;1.00;;;;;;5069500;28;20224;-62
2022/07/29 02:39:04;;;;;;;2.15;1.75;;;13.00;1.00;;;;;;5049727;28;20722;-62
2022/07/29 02:41:36;;;;;;;3.88;1.75;;;13.40;1.00;;;;;;5067660;28;20204;-62
2022/07/29 02:44:07;;;;;;;3.60;2.20;;;13.40;1.00;;;;;;5066071;28;20241;-61
2022/07/29 02:46:36;;;;;;;5.20;1.92;;;13.30;1.00;;;;;;5065940;28;20215;-62
2022/07/29 02:49:09;;;;;;;6.13;1.92;;;13.20;1.00;;;;;;5063582;28;20712;-61
2022/07/29 02:51:43;;;;;;;4.75;1.90;;;13.20;1.00;;;;;;5069189;28;20224;-62
2022/07/29 02:54:12;;;;;;;4.20;2.13;;;13.20;1.00;;;;;;5046810;28;20208;-61
2022/07/29 02:56:41;;;;;;;4.53;1.95;;;13.40;1.00;;;;;;5067770;28;20193;-63
2022/07/29 02:59:11;;;;;;;17.50;2.10;;;13.50;1.00;;;;;;5068055;28;20207;-61
2022/07/29 03:01:42;;;;;;;2.90;1.98;;;13.40;1.00;;;;;;5066849;28;20197;-61
2022/07/29 03:04:12;;;;;;;2.95;1.70;;;13.20;1.00;;;;;;5066000;28;20219;-62
2022/07/29 03:06:41;;;;;;;5.00;1.80;;;13.50;1.00;;;;;;5070033;28;20586;-61
2022/07/29 03:09:10;;;;;;;3.78;1.80;;;13.40;1.00;;;;;;5046367;28;21776;-62
2022/07/29 03:11:38;;;;;;;3.03;1.58;;;13.60;1.00;;;;;;5067873;28;20201;-61
2022/07/29 03:14:06;;;;;;;2.67;1.80;;;13.20;1.00;;;;;;5064954;28;20196;-62
2022/07/29 03:16:36;;;;;;;2.92;1.77;;;13.60;1.00;;;;;;5066820;28;20199;-62
2022/07/29 03:19:03;;;;;;;4.72;2.00;;;13.60;1.00;;;;;;5065925;28;20260;-61
2022/07/29 03:21:32;;;;;;;2.90;1.77;;;13.50;1.00;;;;;;5071597;28;20202;-61
2022/07/29 03:23:58;;;;;;;5.57;2.13;;;14.00;1.00;;;;;;5047184;28;27291;-62
2022/07/29 03:26:26;;;;;;;2.30;1.88;;;13.60;1.00;;;;;;5075558;28;20196;-62
2022/07/29 03:28:52;;;;;;;2.88;1.95;;;13.70;1.00;;;;;;5069608;28;20200;-62
2022/07/29 03:31:19;;;;;;;4.78;1.75;;;13.70;1.00;;;;;;5077010;28;20223;-62
2022/07/29 03:33:46;;;;;;;6.03;2.03;;;13.60;1.00;;;;;;5071867;28;20211;-61
2022/07/29 03:36:13;;;;;;;2.33;1.90;;;13.70;1.00;;;;;;5073533;28;20211;-61
2022/07/29 03:38:44;;;;;;;3.60;2.13;;;13.70;1.00;;;;;;5074395;28;20677;-61
2022/07/29 03:41:13;;;;;;;3.25;1.60;;;14.80;1.00;;;;;;5054728;28;20214;-62
2022/07/29 03:43:42;;;;;;;5.43;1.85;;;13.20;1.00;;;;;;5070347;28;20227;-61
2022/07/29 03:46:11;;;;;;;2.53;1.73;;;13.80;1.00;;;;;;5075878;28;20200;-62
2022/07/29 03:48:43;;;;;;;2.20;2.00;;;13.70;1.00;;;;;;5072188;28;20200;-61
2022/07/29 03:51:10;;;;;;;4.55;1.70;;;13.70;1.00;;;;;;5068298;28;20197;-61
2022/07/29 03:53:37;;;;;;;4.88;2.22;;;13.70;1.00;;;;;;5074635;28;20585;-61
2022/07/29 03:56:09;;;;;;;4.97;1.95;;;13.40;1.00;;;;;;5052235;28;20216;-62
2022/07/29 03:58:36;;;;;;;2.40;1.98;;;13.70;1.00;;;;;;5069283;28;21029;-62
2022/07/29 04:01:03;;;;;;;3.83;2.20;;;13.90;1.00;;;;;;5070213;28;20207;-62
2022/07/29 04:03:30;;;;;;;2.60;1.90;;;13.70;1.00;;;;;;5073640;28;20235;-62
2022/07/29 04:06:01;;;;;;;2.17;1.90;;;13.70;1.00;;;;;;5068854;28;20833;-62
2022/07/29 04:08:28;;;;;;;1.83;1.48;;;13.80;1.00;;;;;;5074130;28;20196;-61
2022/07/29 04:10:55;;;;;;;2.47;1.70;;;13.60;1.00;;;;;;5053756;28;20204;-62
2022/07/29 04:13:23;;;;;;;4.57;1.92;;;13.70;1.00;;;;;;5070490;28;20231;-62
2022/07/29 04:15:50;;;;;;;2.85;1.58;;;13.80;1.00;;;;;;5067664;28;20197;-61
2022/07/29 04:18:17;;;;;;;5.82;1.83;;;13.60;1.00;;;;;;5072491;28;20571;-61
2022/07/29 04:20:44;;;;;;;4.03;1.90;;;13.90;1.00;;;;;;5071909;28;20200;-62
2022/07/29 04:23:11;;;;;;;4.53;1.70;;;13.90;1.00;;;;;;5070868;28;20235;-61
2022/07/29 04:25:39;;;;;;;2.10;1.90;;;14.00;1.00;;;;;;5070406;28;20201;-61
2022/07/29 04:28:06;;;;;;;3.22;1.73;;;13.90;1.00;;;;;;5045463;28;20204;-61
2022/07/29 04:30:37;;;;;;;3.17;1.83;;;14.20;1.00;;;;;;5074875;28;21352;-61
2022/07/29 04:33:05;;;;;;;2.78;1.83;;;13.90;1.00;;;;;;5071769;28;20257;-61
2022/07/29 04:35:36;;;;;;;4.03;1.50;;;13.90;1.00;;;;;;5070317;28;20219;-62
2022/07/29 04:38:02;;;;;;;3.97;1.90;;;14.00;1.00;;;;;;5066860;28;21060;-62
2022/07/29 04:40:29;;;;;;;5.95;1.85;;;13.90;1.00;;;;;;5074644;28;20277;-61
2022/07/29 04:42:56;;;;;;;5.97;1.90;;;17.40;1.00;;;;;;5049204;28;20277;-62
2022/07/29 04:45:23;;;;;;;2.88;1.98;;;14.00;1.00;;;;;;5072919;28;20199;-62
2022/07/29 04:47:51;;;;;;;4.28;1.90;;;14.20;1.00;;;;;;5070458;28;20661;-62
2022/07/29 04:50:18;;;;;;;4.40;2.42;;;14.10;1.00;;;;;;5072249;28;20196;-61
2022/07/29 04:52:45;;;;;;;6.65;2.20;;;14.10;1.00;;;;;;5069048;28;20223;-61
2022/07/29 04:55:12;;;;;;;2.35;1.90;;;14.10;1.00;;;;;;5071122;28;20196;-62
2022/07/29 04:57:40;;;;;;;3.97;1.80;;;14.20;1.00;;;;;;5070286;28;20698;-61
2022/07/29 05:00:08;;;;;;;7.35;2.10;;;14.40;1.00;;;;;;5052592;28;20214;-63
2022/07/29 05:02:35;;;;;;;1.55;1.45;;;14.20;1.00;;;;;;5067089;28;20196;-62
2022/07/29 05:05:03;;;;;;;3.42;1.85;;;14.20;1.00;;;;;;5070541;28;20232;-61
2022/07/29 05:07:30;;;;;;;3.97;1.80;;;14.40;1.00;;;;;;5072301;28;20848;-62
2022/07/29 05:09:57;;;;;;;3.53;1.83;;;14.30;1.00;;;;;;5067521;28;20207;-61
2022/07/29 05:12:24;;;;;;;2.15;1.48;;;14.50;1.00;;;;;;5073261;28;20208;-61
2022/07/29 05:14:51;;;;;;;5.47;2.10;;;14.40;1.00;;;;;;5050502;28;20232;-61
2022/07/29 05:17:18;;;;;;;2.00;1.65;;;14.50;1.00;;;;;;5069377;28;20200;-62
2022/07/29 05:19:45;;;;;;;2.78;1.50;;;14.40;1.00;;;;;;5070126;28;20744;-61
2022/07/29 05:22:13;;;;;;;6.95;2.15;;;14.40;1.00;;;;;;5070620;28;20195;-62
2022/07/29 05:24:40;;;;;;;4.97;2.00;;;14.40;1.00;;;;;;5069395;28;20223;-61
2022/07/29 05:27:07;;;;;;;4.35;2.00;;;14.50;1.00;;;;;;5069650;28;20220;-61
2022/07/29 05:29:34;;;;;;;2.17;1.85;;;14.60;1.00;;;;;;5046376;28;20216;-62
2022/07/29 05:32:01;;;;;;;3.75;2.10;;;14.40;1.00;;;;;;5069445;28;20243;-61
2022/07/29 05:34:28;;;;;;;2.72;2.00;;;;;;;;;;5070033;28;20197;-62
2022/07/29 05:36:54;;;;;;;5.85;2.03;;;14.50;1.00;;;;;;5069418;28;20767;-61
2022/07/29 05:39:23;;;;;;;5.30;2.03;;;14.30;1.00;;;;;;5070746;28;20197;-62
2022/07/29 05:41:50;;;;;;;4.25;1.63;;;16.10;1.00;;;;;;5070737;28;20211;-61
2022/07/29 05:44:19;;;;;;;2.75;1.88;;;15.40;99.90;;;;;;5071669;28;20226;-62
2022/07/29 05:46:46;;;;;;;5.07;2.20;;;14.60;99.90;;;;;;5047865;28;20215;-61
2022/07/29 05:49:13;;;;;;;6.47;2.22;;;14.60;99.90;;;;;;5065029;28;20918;-61
2022/07/29 05:51:39;;;;;;;5.45;1.67;;;14.60;99.90;;;;;;5067420;28;20883;-61
2022/07/29 05:54:07;;;;;;;4.13;1.75;;;14.70;99.90;;;;;;5069213;28;20219;-62
2022/07/29 05:56:38;;;;;;;4.15;1.98;;;14.70;99.90;;;;;;5069243;28;20680;-62
2022/07/29 05:59:05;;;;;;;7.10;2.42;;;14.80;99.90;;;;;;5066423;28;20200;-62
2022/07/29 06:01:32;;;;;;;3.83;1.90;;;14.90;99.90;;;;;;5048237;28;20217;-62
2022/07/29 06:03:59;;;;;;;5.15;1.75;;;14.70;99.90;;;;;;5070890;28;20918;-62
2022/07/29 06:06:25;;;;;;;4.20;2.15;;;16.00;99.90;;;;;;5071665;28;20196;-62
2022/07/29 06:08:52;;;;;;;5.97;1.75;;;14.90;99.90;;;;;;5069680;28;20197;-62
2022/07/29 06:11:19;;;;;;;5.68;2.88;;;15.30;99.90;;;;;;5072121;28;20196;-62
2022/07/29 06:13:47;;;;;;;3.67;1.98;;;15.00;99.90;;;;;;5069105;28;20303;-61
2022/07/29 06:16:14;;;;;;;5.05;2.50;;;15.30;99.90;;;;;;5049391;28;21835;-62
2022/07/29 06:18:40;;;;;;;4.82;2.00;;;15.10;99.90;;;;;;5071050;28;20478;-62
2022/07/29 06:21:10;;;;;;;12.75;3.03;;;;;;;;;;5068244;28;20192;-62
2022/07/29 06:23:37;;;;;;;8.85;2.10;;;15.20;99.90;;;;;;5072374;28;20192;-61
2022/07/29 06:26:04;;;;;;;4.75;2.17;;;15.20;99.90;;;;;;5070888;28;20230;-62
2022/07/29 06:28:31;;;;;;;2.67;1.92;;;15.40;99.90;;;;;;5068325;28;20203;-62
2022/07/29 06:31:00;;;;;;;3.17;1.85;;;15.30;99.90;;;;;;5071143;28;20228;-62
2022/07/29 06:33:27;;;;;;;3.67;1.92;;;15.30;99.90;;;;;;5047772;28;20211;-62
2022/07/29 06:35:54;;;;;;;2.47;2.22;;;15.30;1.00;;;;;;5068028;28;20204;-62
2022/07/29 06:38:21;;;;;;;4.35;2.05;;;15.20;1.00;;;;;;5073637;28;20227;-62
2022/07/29 06:41:04;;;;;;;4.22;2.30;;;15.70;40.10;;;;;;5069219;28;20197;-61
2022/07/29 06:43:33;;;;;;;6.32;2.55;;;15.00;34.40;;;;;;5075057;28;20227;-62
2022/07/29 06:46:06;;;;;;;3.88;1.98;;;15.40;48.00;;;;;;5070349;28;20319;-62
2022/07/29 06:48:33;;;;;;;3.47;2.10;;;15.50;27.10;;;;;;5052030;28;20689;-61
2022/07/29 06:51:01;;;;;;;5.40;2.45;;;16.00;9.20;;;;;;5069768;28;20208;-61
2022/07/29 06:53:28;;;;;;;5.40;2.33;;;15.50;1.00;;;;;;5070604;28;20200;-62
2022/07/29 06:55:55;;;;;;;4.93;2.10;;;15.40;1.00;;;;;;5067483;28;20200;-62
2022/07/29 06:58:22;;;;;;;3.45;2.20;;;15.60;1.00;;;;;;5062420;28;20208;-62
2022/07/29 07:00:49;;;;;;;4.05;2.22;;;16.30;1.00;;;;;;5070690;28;20305;-62
2022/07/29 07:03:18;;;;;;;4.85;2.35;;;15.60;1.00;;;;;;5046912;28;21253;-62
2022/07/29 07:05:45;;;;;;;3.53;2.33;;;15.70;1.00;;;;;;5069538;28;20238;-61
2022/07/29 07:08:12;;;;;;;4.95;2.30;;;15.80;1.00;;;;;;5069430;28;20461;-62
2022/07/29 07:10:40;;;;;;;3.50;1.98;;;15.80;1.00;;;;;;5071555;28;20203;-61
2022/07/29 07:13:08;;;;;;;5.47;2.15;;;15.90;1.00;;;;;;5067680;28;20189;-62
2022/07/29 07:15:36;;;;;;;6.55;2.15;;;15.90;1.00;;;;;;5070130;28;20208;-62
2022/07/29 07:18:02;;;;;;;5.47;1.92;;;15.80;1.00;;;;;;5067132;28;20215;-62
2022/07/29 07:20:31;;;;;;;2.88;1.85;;;;;;;;;;5046393;28;20803;-62
2022/07/29 07:22:58;;;;;;;3.70;1.90;;;16.20;99.90;;;;;;5070154;28;20188;-62
2022/07/29 07:25:25;;;;;;;3.47;2.10;;;16.30;99.90;;;;;;5055206;28;20242;-62
2022/07/29 07:27:52;;;;;;;3.42;1.90;;;16.30;99.90;;;;;;5050803;28;21614;-62
2022/07/29 07:30:18;;;;;;;4.05;2.10;;;16.30;99.90;;;;;;5067696;28;20208;-61
2022/07/29 07:32:45;;;;;;;4.43;2.70;;;16.30;99.90;;;;;;5061085;28;20215;-62
2022/07/29 07:35:12;;;;;;;3.60;2.25;;;16.40;1.00;;;;;;5048475;28;20728;-61
2022/07/29 07:37:41;;;;;;;8.40;2.65;;;;;;;;;;5066677;28;20201;-62
2022/07/29 07:40:11;;;;;;;4.25;1.80;;;16.50;1.00;;;;;;5068368;28;20993;-62
2022/07/29 07:42:38;;;;;;;2.80;1.90;;;16.50;1.00;;;;;;5068059;28;20201;-62
2022/07/29 07:45:05;;;;;;;10.43;2.90;;;16.80;1.00;;;;;;5066719;28;20250;-62
2022/07/29 07:47:32;;;;;;;2.60;1.90;;;16.70;1.00;;;;;;5070180;28;20632;-62
2022/07/29 07:49:59;;;;;;;6.20;2.10;;;16.80;1.00;;;;;;5038038;28;20215;-62
2022/07/29 07:52:26;;;;;;;2.40;1.90;;;16.80;1.00;;;;;;5063181;28;20260;-62
2022/07/29 07:54:55;;;;;;;3.80;2.10;;;16.90;1.00;;;;;;5068539;28;20193;-62
2022/07/29 07:57:21;;;;;;;3.72;2.08;;;17.10;1.00;;;;;;5054958;28;23511;-62
2022/07/29 07:59:48;;;;;;;4.53;2.20;;;;;;;;;;5068980;28;20204;-61
2022/07/29 08:02:15;;;;;;;5.78;2.00;;;17.30;1.00;;;;;;5053552;28;20204;-62
2022/07/29 08:04:42;;;;;;;5.20;1.95;;;;;;;;;;5053824;28;20220;-61
2022/07/29 08:07:09;;;;;;;8.43;2.33;;;17.40;94.60;;;;;;5038063;28;20583;-62
2022/07/29 08:09:36;;;;;;;2.20;1.90;;;17.30;1.00;;;;;;5059027;28;20224;-61
2022/07/29 08:12:05;;;;;;;4.70;1.80;;;17.40;1.00;;;;;;5063046;28;20200;-62
2022/07/29 08:14:33;;;;;;;6.85;2.20;;;17.40;12.10;;;;;;5065668;28;20223;-62
2022/07/29 08:17:00;;;;;;;4.30;2.35;;;18.30;99.90;;;;;;5068260;28;20200;-61
2022/07/29 08:19:27;;;;;;;3.80;1.80;;;17.40;99.90;;;;;;5049300;28;20256;-62
2022/07/29 08:21:54;;;;;;;8.40;2.30;;;17.50;99.90;;;;;;5043881;28;20245;-62
2022/07/29 08:27:07;;;;;;;3.00;1.70;;;17.60;99.90;;;;;;5069975;28;20695;-62
2022/07/29 08:29:34;;;;;;;4.25;2.05;;;17.90;1.00;;;;;;5065671;28;20247;-62
2022/07/29 08:32:00;;;;;;;3.55;1.80;;;17.70;1.00;;;;;;5065384;28;20207;-61
2022/07/29 08:34:28;;;;;;;2.67;1.65;;;17.80;1.00;;;;;;5059112;28;20227;-62
2022/07/29 08:36:55;;;;;;;7.43;2.03;;;17.90;1.00;;;;;;5038855;28;20208;-62
2022/07/29 08:39:21;;;;;;;4.15;2.58;;;17.80;1.00;;;;;;5066307;28;20196;-62
2022/07/29 08:41:48;;;;;;;5.90;1.90;;;17.90;1.00;;;;;;5068065;28;20203;-62
2022/07/29 08:44:18;;;;;;;4.90;1.90;;;17.90;99.90;;;;;;5067192;28;20301;-62
2022/07/29 08:46:45;;;;;;;2.63;1.85;;;17.80;99.90;;;;;;5072380;28;20905;-62
2022/07/29 08:49:12;;;;;;;4.43;2.17;;;18.00;99.90;;;;;;5060189;28;20197;-62
2022/07/29 08:51:41;;;;;;;3.50;1.85;;;18.10;1.00;;;;;;5050372;28;20330;-61
2022/07/29 08:54:10;;;;;;;2.95;1.90;;;18.20;99.90;;;;;;5070318;28;20570;-61
2022/07/29 08:56:37;;;;;;;4.53;1.92;;;18.20;66.40;;;;;;5067284;28;20208;-62
2022/07/29 08:59:05;;;;;;;4.57;2.00;;;18.40;1.00;;;;;;5068373;28;20295;-62
2022/07/29 09:01:38;;;;;;;3.47;1.83;;;18.30;99.90;;;;;;5061844;28;20273;-62
2022/07/29 09:04:10;;;;;;;3.75;1.70;;;18.40;99.90;;;;;;5060023;28;20214;-61
2022/07/29 09:06:40;;;;;;;3.38;1.77;;;18.50;99.90;;;;;;5054855;28;20227;-62
2022/07/29 09:09:08;;;;;;;4.43;1.73;;;18.50;99.90;;;;;;5045322;28;20224;-62
2022/07/29 09:11:36;;;;;;;5.82;1.90;;;17.60;1.00;;;;;;5065815;28;20205;-62
2022/07/29 09:14:03;;;;;;;7.43;2.00;;;18.40;3.50;;;;;;5068957;28;20200;-62
2022/07/29 09:19:29;;;;;;;3.67;1.48;;;19.20;99.90;;;;;;5067819;27;20594;-61
2022/07/29 09:22:00;;;;;;;2.92;1.65;;;19.20;1.00;;;;;;5034053;28;20201;-62
2022/07/29 09:24:48;;;;;;;4.32;1.73;;;19.50;1.00;;;;;;5022954;28;20220;-62
2022/07/29 09:27:23;;;;;;;7.80;1.90;;;19.80;99.90;;;;;;5041494;28;20209;-62
2022/07/29 09:29:58;;;;;;;2.47;1.50;;;19.90;99.90;;;;;;5047668;28;20201;-62
2022/07/29 09:32:26;;;;;;;3.42;1.98;;;19.90;99.90;;;;;;5047286;28;20199;-63
2022/07/29 09:35:19;;;;;;;6.45;1.70;;;19.90;99.90;;;;;;5051687;28;20622;-62
2022/07/29 09:37:47;;;;;;;5.95;2.00;;;19.90;99.90;;;;;;5041648;28;20237;-63
2022/07/29 09:40:16;;;;;;;5.95;1.60;;;19.90;99.90;;;;;;5023674;28;20240;-62
2022/07/29 09:42:43;;;;;;;8.15;1.70;;;20.10;1.00;;;;;;5048993;28;20693;-62
2022/07/29 09:45:11;;;;;;;2.55;1.60;;;20.10;1.00;;;;;;5050498;28;20583;-62
2022/07/29 09:47:47;;;;;;;6.22;1.70;;;20.20;1.00;;;;;;5048510;28;20209;-63
2022/07/29 09:50:14;;;;;;;2.95;1.48;;;20.30;1.00;;;;;;5046625;28;20244;-63
2022/07/29 09:52:49;;;;;;;7.75;1.70;;;20.40;1.00;;;;;;5038817;28;20891;-63
2022/07/29 09:55:17;;;;;;;24.25;4.60;;;20.50;1.00;;;;;;5026265;28;20348;-63
2022/07/29 09:57:44;;;;;;;7.70;1.80;;;20.50;1.00;;;;;;5048077;28;20216;-62
2022/07/29 10:00:14;;;;;;;2.45;1.55;;;20.40;1.00;;;;;;5043315;28;20210;-62
2022/07/29 10:02:44;;;;;;;3.50;1.50;;;20.60;1.00;;;;;;5048701;28;20201;-63
2022/07/29 10:05:19;;;;;;;2.15;1.40;;;20.60;1.00;;;;;;5048181;28;20287;-61
2022/07/29 10:07:48;;;;;;;3.55;1.70;;;20.70;1.00;;;;;;5048400;28;20262;-62
2022/07/29 10:10:21;;;;;;;3.20;1.65;;;19.60;1.00;;;;;;5014813;28;20216;-62
2022/07/29 10:12:54;;;;;;;4.18;1.73;;;20.80;1.00;;;;;;5051037;28;20204;-62
2022/07/29 10:15:23;;;;;;;8.43;2.03;;;20.90;1.00;;;;;;5043188;28;20188;-63
2022/07/29 10:17:50;;;;;;;5.13;1.92;;;20.90;1.00;;;;;;5046976;28;20601;-63
2022/07/29 10:20:18;;;;;;;6.90;2.40;;;20.90;1.00;;;;;;5044562;28;20212;-62
2022/07/29 10:22:46;;;;;;;4.85;1.83;;;20.90;1.00;;;;;;5044315;28;20564;-62
2022/07/29 10:25:15;;;;;;;1.60;1.50;;;21.00;1.00;;;;;;5026610;28;20228;-62
2022/07/29 10:27:43;;;;;;;11.02;1.65;;;21.10;1.00;;;;;;5045856;28;20590;-62
2022/07/29 10:30:11;;;;;;;6.78;1.90;;;21.20;1.00;;;;;;5033241;28;20251;-62
2022/07/29 10:33:02;;;;;;;1.90;1.30;;;21.10;1.00;;;;;;5031086;28;20190;-63
2022/07/29 10:35:54;;;;;;;4.47;1.70;;;21.20;1.00;;;;;;5031971;28;20193;-62
2022/07/29 10:38:44;;;;;;;1.83;1.50;;;21.40;1.00;;;;;;5028172;28;20910;-63
2022/07/29 10:41:46;;;;;;;4.72;1.73;;;21.40;1.00;;;;;;5010209;28;20247;-63
2022/07/29 10:44:17;;;;;;;6.60;1.88;;;21.50;99.90;;;;;;5031359;28;20220;-62
2022/07/29 10:46:44;;;;;;;4.13;1.63;;;21.40;1.00;;;;;;5032237;28;20202;-63
2022/07/29 10:49:14;;;;;;;5.47;1.20;;;21.50;1.00;;;;;;5032676;28;20213;-63
2022/07/29 10:51:54;;;;;;;3.13;1.23;;;21.40;99.90;;;;;;5034414;28;20738;-63
2022/07/29 10:54:42;;;;;;;7.60;1.80;;;21.80;1.00;;;;;;5010738;28;20213;-63
2022/07/29 10:57:20;;;;;;;4.75;1.60;;;21.70;99.90;;;;;;5030528;28;20236;-63
2022/07/29 10:59:48;;;;;;;3.90;1.63;;;21.80;99.90;;;;;;5033095;28;20233;-62
2022/07/29 11:02:50;;;;;;;2.38;1.50;;;21.90;99.90;;;;;;5031435;28;20202;-62
2022/07/29 11:05:19;;;;;;;8.93;1.90;;;22.00;99.90;;;;;;5028299;28;20215;-63
2022/07/29 11:08:25;;;;;;;3.97;1.88;;;22.20;99.90;;;;;;5034812;28;20265;-62
2022/07/29 11:10:54;;;;;;;5.40;1.45;;;22.10;99.90;;;;;;5010118;28;20220;-62
2022/07/29 11:13:47;;;;;;;1.80;1.48;;;22.10;99.90;;;;;;5029849;28;20220;-62
2022/07/29 11:16:15;;;;;;;3.38;2.00;;;22.20;99.90;;;;;;5033333;28;20212;-63
2022/07/29 11:19:19;;;;;;;3.75;1.55;;;22.20;99.90;;;;;;5032794;28;20598;-62
2022/07/29 11:21:47;;;;;;;3.58;1.38;;;22.30;99.90;;;;;;5037726;28;20200;-63
2022/07/29 11:24:15;;;;;;;3.63;1.33;;;22.20;99.90;;;;;;5030580;28;20308;-62
2022/07/29 11:26:43;;;;;;;7.70;1.60;;;22.30;99.90;;;;;;5013242;28;20220;-62
2022/07/29 11:29:22;;;;;;;3.30;1.70;;;22.30;99.90;;;;;;5024020;28;20201;-62
2022/07/29 11:31:53;;;;;;;4.40;1.60;;;22.30;99.90;;;;;;5032418;28;20212;-63
2022/07/29 11:34:25;;;;;;;1.98;1.50;;;22.40;99.90;;;;;;5025947;28;20201;-62
2022/07/29 11:37:18;;;;;;;3.30;1.67;;;22.40;99.90;;;;;;5032192;28;20208;-63
2022/07/29 11:39:47;;;;;;;4.30;1.60;;;22.50;99.90;;;;;;5023707;28;20225;-63
2022/07/29 11:42:43;;;;;;;4.03;1.95;;;22.40;99.90;;;;;;4991786;28;20209;-64
2022/07/29 11:45:23;;;;;;;1.92;1.58;;;22.40;99.90;;;;;;5034646;28;20201;-62
2022/07/29 11:47:54;;;;;;;4.82;1.80;;;22.30;99.90;;;;;;5023418;28;20225;-62
2022/07/29 11:50:30;;;;;;;2.70;1.55;;;22.40;99.90;;;;;;5033238;28;20193;-62
2022/07/29 11:52:58;;;;;;;3.05;1.42;;;22.40;99.90;;;;;;5031113;28;20194;-62
2022/07/29 11:55:25;;;;;;;4.75;1.65;;;22.40;99.90;;;;;;5036011;28;20201;-63
2022/07/29 11:57:53;;;;;;;8.98;2.15;;;22.70;99.90;;;;;;5009333;28;20247;-61
2022/07/29 12:00:30;;;;;;;2.78;1.70;;;22.50;99.90;;;;;;5032408;28;20197;-62
2022/07/29 12:02:59;;;;;;;3.10;1.88;;;22.50;99.90;;;;;;5007929;28;20208;-62
2022/07/29 12:05:35;;;;;;;2.72;1.70;;;22.60;99.90;;;;;;5030930;28;20205;-62
2022/07/29 12:08:14;;;;;;;4.03;1.42;;;22.50;99.90;;;;;;5016994;28;20208;-61
2022/07/29 12:10:41;;;;;;;2.53;1.88;;;22.50;99.90;;;;;;5024085;28;20205;-61
2022/07/29 12:13:08;;;;;;;7.28;1.73;;;22.50;99.90;;;;;;5001068;28;20209;-61
2022/07/29 12:15:37;;;;;;;4.70;2.00;;;22.50;99.90;;;;;;5030518;28;20202;-61
2022/07/29 12:18:15;;;;;;;3.28;1.73;;;22.50;99.90;;;;;;5032502;28;20221;-63
2022/07/29 12:20:42;;;;;;;12.73;1.83;;;22.50;99.90;;;;;;5025158;28;20204;-62
2022/07/29 12:23:11;;;;;;;3.65;1.77;;;22.70;99.90;;;;;;5027578;28;20201;-61
2022/07/29 12:25:39;;;;;;;1.55;1.35;;;22.50;99.90;;;;;;5024073;28;20205;-61
2022/07/29 12:28:08;;;;;;;3.25;1.70;;;22.50;99.90;;;;;;5000577;28;20224;-62
2022/07/29 12:30:42;;;;;;;12.57;1.70;;;22.50;99.90;;;;;;5029851;28;20221;-63
2022/07/29 12:33:13;;;;;;;5.45;1.80;;;22.60;99.90;;;;;;5030435;28;20208;-63
2022/07/29 12:35:40;;;;;;;2.08;1.40;;;22.50;99.90;;;;;;5031557;28;20556;-63
2022/07/29 12:38:08;;;;;;;6.53;2.05;;;22.70;99.90;;;;;;5021229;28;20217;-62
2022/07/29 12:40:34;;;;;;;2.25;1.58;;;22.50;99.90;;;;;;5033046;28;20202;-62
2022/07/29 12:43:07;;;;;;;1.90;1.35;;;22.50;99.90;;;;;;5006978;28;20209;-62
2022/07/29 12:45:34;;;;;;;5.28;1.85;;;22.60;99.90;;;;;;5020894;28;20193;-62
2022/07/29 12:48:02;;;;;;;6.28;1.90;;;22.00;99.90;;;;;;5008379;28;20929;-62
2022/07/29 12:50:31;;;;;;;4.43;1.55;;;22.60;99.90;;;;;;5026560;28;20197;-62
2022/07/29 12:53:10;;;;;;;9.45;1.60;;;22.60;99.90;;;;;;5017245;28;20715;-63
2022/07/29 12:55:41;;;;;;;6.50;1.90;;;22.60;99.90;;;;;;5027856;28;20247;-62
2022/07/29 12:58:08;;;;;;;5.80;1.77;;;22.80;99.90;;;;;;5006033;28;20209;-63
2022/07/29 13:00:35;;;;;;;3.47;1.60;;;22.60;99.90;;;;;;5027903;28;20207;-63
2022/07/29 13:03:03;;;;;;;4.88;1.67;;;22.80;99.90;;;;;;5018509;28;20212;-63
2022/07/29 13:05:44;;;;;;;8.02;2.05;;;22.70;99.90;;;;;;5029447;28;20206;-62
2022/07/29 13:08:13;;;;;;;5.03;2.00;;;22.80;99.90;;;;;;5015780;28;20210;-63
2022/07/29 13:10:40;;;;;;;5.97;1.60;;;22.80;99.90;;;;;;5024432;28;20928;-63
2022/07/29 13:13:09;;;;;;;5.88;1.50;;;22.90;99.90;;;;;;5021711;28;20224;-63
2022/07/29 13:15:36;;;;;;;3.28;1.55;;;23.00;99.90;;;;;;5001508;28;20202;-62